Terminal Aerodrome Forecast
Issued by NWS Topeka, KS

Home | Current Version | Previous Version | Graphics & Text | Print | Product List | Glossary On
Versions: 1 2 3 4 5 6 7 8 9 10 11 12 13 14 15 16
000
FTUS43 KTOP 261100
TAFTOP
TAF
KTOP 261130Z 2612/2712 17006KT P6SM BKN200
      TEMPO 2614/2616 BKN008
     FM261600 01006KT P6SM OVC012
     FM270200 34006KT 6SM -RASN BR OVC011=

USA.gov is the U.S. government's official web portal to all federal, state and local government web resources and services.